sensor_id;sensor_type;location;lat;lon;timestamp;P1;durP1;ratioP1;P2;durP2;ratioP2
20734;SDS011;10528;52.124;5.196;2022-10-16T00:01:35;3.60;;;2.05;;
20734;SDS011;10528;52.124;5.196;2022-10-16T00:04:02;4.57;;;1.45;;
20734;SDS011;10528;52.124;5.196;2022-10-16T00:06:30;5.70;;;1.73;;
20734;SDS011;10528;52.124;5.196;2022-10-16T00:08:58;5.60;;;2.05;;
20734;SDS011;10528;52.124;5.196;2022-10-16T00:11:35;6.03;;;2.00;;
20734;SDS011;10528;52.124;5.196;2022-10-16T00:14:05;6.40;;;1.58;;
20734;SDS011;10528;52.124;5.196;2022-10-16T00:16:36;6.68;;;1.70;;
20734;SDS011;10528;52.124;5.196;2022-10-16T00:19:04;3.80;;;1.58;;
20734;SDS011;10528;52.124;5.196;2022-10-16T00:21:31;5.55;;;2.10;;
20734;SDS011;10528;52.124;5.196;2022-10-16T00:24:06;5.57;;;1.73;;
20734;SDS011;10528;52.124;5.196;2022-10-16T00:26:35;4.90;;;1.70;;
20734;SDS011;10528;52.124;5.196;2022-10-16T00:29:04;4.25;;;1.85;;
20734;SDS011;10528;52.124;5.196;2022-10-16T00:31:32;4.53;;;1.80;;
20734;SDS011;10528;52.124;5.196;2022-10-16T00:33:59;5.75;;;1.90;;
20734;SDS011;10528;52.124;5.196;2022-10-16T00:36:26;3.25;;;1.50;;
20734;SDS011;10528;52.124;5.196;2022-10-16T00:38:54;4.88;;;1.58;;
20734;SDS011;10528;52.124;5.196;2022-10-16T00:41:31;5.28;;;1.75;;
20734;SDS011;10528;52.124;5.196;2022-10-16T00:44:01;4.05;;;1.77;;
20734;SDS011;10528;52.124;5.196;2022-10-16T00:46:50;4.05;;;1.55;;
20734;SDS011;10528;52.124;5.196;2022-10-16T00:49:18;4.50;;;1.77;;
20734;SDS011;10528;52.124;5.196;2022-10-16T00:51:50;4.55;;;1.75;;
20734;SDS011;10528;52.124;5.196;2022-10-16T00:54:21;3.20;;;1.75;;
20734;SDS011;10528;52.124;5.196;2022-10-16T00:56:53;4.93;;;2.22;;
20734;SDS011;10528;52.124;5.196;2022-10-16T00:59:27;6.35;;;2.13;;
20734;SDS011;10528;52.124;5.196;2022-10-16T01:02:06;3.28;;;1.90;;
20734;SDS011;10528;52.124;5.196;2022-10-16T01:04:57;5.38;;;2.08;;
20734;SDS011;10528;52.124;5.196;2022-10-16T01:13:46;8.50;;;1.88;;
20734;SDS011;10528;52.124;5.196;2022-10-16T01:16:28;5.70;;;1.83;;
20734;SDS011;10528;52.124;5.196;2022-10-16T01:21:51;6.55;;;2.40;;
20734;SDS011;10528;52.124;5.196;2022-10-16T01:24:27;7.00;;;2.05;;
20734;SDS011;10528;52.124;5.196;2022-10-16T01:29:59;2.70;;;1.75;;
20734;SDS011;10528;52.124;5.196;2022-10-16T01:32:45;4.20;;;2.03;;
20734;SDS011;10528;52.124;5.196;2022-10-16T01:35:22;5.55;;;2.00;;
20734;SDS011;10528;52.124;5.196;2022-10-16T01:38:00;4.90;;;2.50;;
20734;SDS011;10528;52.124;5.196;2022-10-16T01:40:39;4.47;;;1.92;;
20734;SDS011;10528;52.124;5.196;2022-10-16T01:43:13;3.88;;;2.30;;
20734;SDS011;10528;52.124;5.196;2022-10-16T01:45:46;4.57;;;1.80;;
20734;SDS011;10528;52.124;5.196;2022-10-16T01:48:14;4.82;;;2.05;;
20734;SDS011;10528;52.124;5.196;2022-10-16T01:50:55;4.13;;;2.00;;
20734;SDS011;10528;52.124;5.196;2022-10-16T01:53:41;3.40;;;1.50;;
20734;SDS011;10528;52.124;5.196;2022-10-16T01:56:15;4.80;;;2.00;;
20734;SDS011;10528;52.124;5.196;2022-10-16T01:58:56;4.13;;;1.85;;
20734;SDS011;10528;52.124;5.196;2022-10-16T02:01:30;5.15;;;1.92;;
20734;SDS011;10528;52.124;5.196;2022-10-16T02:04:09;3.22;;;1.75;;
20734;SDS011;10528;52.124;5.196;2022-10-16T02:06:46;3.70;;;2.00;;
20734;SDS011;10528;52.124;5.196;2022-10-16T02:09:13;3.40;;;1.90;;
20734;SDS011;10528;52.124;5.196;2022-10-16T02:11:43;6.43;;;2.08;;
20734;SDS011;10528;52.124;5.196;2022-10-16T02:14:10;4.68;;;1.90;;
20734;SDS011;10528;52.124;5.196;2022-10-16T02:16:38;4.35;;;1.92;;
20734;SDS011;10528;52.124;5.196;2022-10-16T02:19:11;4.18;;;2.42;;
20734;SDS011;10528;52.124;5.196;2022-10-16T02:21:43;3.78;;;2.30;;
20734;SDS011;10528;52.124;5.196;2022-10-16T02:27:11;4.30;;;2.10;;
20734;SDS011;10528;52.124;5.196;2022-10-16T02:33:11;3.08;;;1.83;;
20734;SDS011;10528;52.124;5.196;2022-10-16T02:35:41;3.33;;;1.90;;
20734;SDS011;10528;52.124;5.196;2022-10-16T02:38:11;4.20;;;2.00;;
20734;SDS011;10528;52.124;5.196;2022-10-16T02:40:40;4.80;;;1.90;;
20734;SDS011;10528;52.124;5.196;2022-10-16T02:43:08;3.15;;;1.88;;
20734;SDS011;10528;52.124;5.196;2022-10-16T02:45:36;5.45;;;2.00;;
20734;SDS011;10528;52.124;5.196;2022-10-16T02:48:03;3.67;;;2.00;;
20734;SDS011;10528;52.124;5.196;2022-10-16T02:50:31;3.55;;;1.88;;
20734;SDS011;10528;52.124;5.196;2022-10-16T02:52:57;4.75;;;2.08;;
20734;SDS011;10528;52.124;5.196;2022-10-16T02:55:24;3.47;;;1.83;;
20734;SDS011;10528;52.124;5.196;2022-10-16T02:57:52;4.13;;;1.98;;
20734;SDS011;10528;52.124;5.196;2022-10-16T03:00:19;5.38;;;2.17;;
20734;SDS011;10528;52.124;5.196;2022-10-16T03:02:46;3.67;;;2.15;;
20734;SDS011;10528;52.124;5.196;2022-10-16T03:05:13;2.40;;;1.73;;
20734;SDS011;10528;52.124;5.196;2022-10-16T03:07:41;3.95;;;1.77;;
20734;SDS011;10528;52.124;5.196;2022-10-16T03:10:08;4.35;;;2.00;;
20734;SDS011;10528;52.124;5.196;2022-10-16T03:12:35;3.45;;;1.70;;
20734;SDS011;10528;52.124;5.196;2022-10-16T03:15:02;2.42;;;1.40;;
20734;SDS011;10528;52.124;5.196;2022-10-16T03:17:31;5.00;;;1.92;;
20734;SDS011;10528;52.124;5.196;2022-10-16T03:19:58;2.55;;;1.70;;
20734;SDS011;10528;52.124;5.196;2022-10-16T03:22:26;2.83;;;1.77;;
20734;SDS011;10528;52.124;5.196;2022-10-16T03:24:53;3.17;;;1.73;;
20734;SDS011;10528;52.124;5.196;2022-10-16T03:27:20;3.17;;;1.60;;
20734;SDS011;10528;52.124;5.196;2022-10-16T03:29:47;4.28;;;1.73;;
20734;SDS011;10528;52.124;5.196;2022-10-16T03:32:13;3.78;;;1.90;;
20734;SDS011;10528;52.124;5.196;2022-10-16T03:34:40;4.13;;;1.60;;
20734;SDS011;10528;52.124;5.196;2022-10-16T03:37:08;2.17;;;1.50;;
20734;SDS011;10528;52.124;5.196;2022-10-16T03:39:34;4.18;;;1.70;;
20734;SDS011;10528;52.124;5.196;2022-10-16T03:42:01;2.67;;;1.20;;
20734;SDS011;10528;52.124;5.196;2022-10-16T03:44:28;3.28;;;1.65;;
20734;SDS011;10528;52.124;5.196;2022-10-16T03:46:55;3.45;;;1.58;;
20734;SDS011;10528;52.124;5.196;2022-10-16T03:49:22;3.33;;;1.48;;
20734;SDS011;10528;52.124;5.196;2022-10-16T03:51:49;1.67;;;1.20;;
20734;SDS011;10528;52.124;5.196;2022-10-16T03:54:16;2.47;;;1.40;;
20734;SDS011;10528;52.124;5.196;2022-10-16T03:56:42;2.67;;;1.40;;
20734;SDS011;10528;52.124;5.196;2022-10-16T03:59:09;2.58;;;1.55;;
20734;SDS011;10528;52.124;5.196;2022-10-16T04:01:36;4.88;;;1.65;;
20734;SDS011;10528;52.124;5.196;2022-10-16T04:04:03;1.48;;;1.30;;
20734;SDS011;10528;52.124;5.196;2022-10-16T04:06:29;2.95;;;1.40;;
20734;SDS011;10528;52.124;5.196;2022-10-16T04:08:56;2.70;;;1.55;;
20734;SDS011;10528;52.124;5.196;2022-10-16T04:11:23;2.42;;;1.40;;
20734;SDS011;10528;52.124;5.196;2022-10-16T04:13:50;5.65;;;1.45;;
20734;SDS011;10528;52.124;5.196;2022-10-16T04:16:16;3.25;;;1.50;;
20734;SDS011;10528;52.124;5.196;2022-10-16T04:18:43;2.80;;;1.40;;
20734;SDS011;10528;52.124;5.196;2022-10-16T04:21:10;1.52;;;1.13;;
20734;SDS011;10528;52.124;5.196;2022-10-16T04:23:37;2.95;;;1.75;;
20734;SDS011;10528;52.124;5.196;2022-10-16T04:26:04;2.85;;;1.30;;
20734;SDS011;10528;52.124;5.196;2022-10-16T04:28:31;3.80;;;1.50;;
20734;SDS011;10528;52.124;5.196;2022-10-16T04:30:58;3.42;;;1.20;;
20734;SDS011;10528;52.124;5.196;2022-10-16T04:33:25;2.97;;;1.30;;
20734;SDS011;10528;52.124;5.196;2022-10-16T04:36:01;3.40;;;1.65;;
20734;SDS011;10528;52.124;5.196;2022-10-16T04:38:29;2.22;;;1.42;;
20734;SDS011;10528;52.124;5.196;2022-10-16T04:40:56;3.10;;;1.30;;
20734;SDS011;10528;52.124;5.196;2022-10-16T04:43:23;3.70;;;1.52;;
20734;SDS011;10528;52.124;5.196;2022-10-16T04:45:50;4.07;;;1.48;;
20734;SDS011;10528;52.124;5.196;2022-10-16T04:48:17;3.33;;;1.70;;
20734;SDS011;10528;52.124;5.196;2022-10-16T04:50:44;2.63;;;1.25;;
20734;SDS011;10528;52.124;5.196;2022-10-16T04:53:18;2.75;;;1.58;;
20734;SDS011;10528;52.124;5.196;2022-10-16T04:55:45;3.83;;;1.60;;
20734;SDS011;10528;52.124;5.196;2022-10-16T04:58:12;3.03;;;1.30;;
20734;SDS011;10528;52.124;5.196;2022-10-16T05:00:39;3.25;;;1.30;;
20734;SDS011;10528;52.124;5.196;2022-10-16T05:03:06;2.58;;;1.60;;
20734;SDS011;10528;52.124;5.196;2022-10-16T05:05:35;1.83;;;1.38;;
20734;SDS011;10528;52.124;5.196;2022-10-16T05:08:02;2.88;;;1.17;;
20734;SDS011;10528;52.124;5.196;2022-10-16T05:10:30;3.85;;;1.40;;
20734;SDS011;10528;52.124;5.196;2022-10-16T05:12:57;4.78;;;1.70;;
20734;SDS011;10528;52.124;5.196;2022-10-16T05:15:24;2.28;;;1.45;;
20734;SDS011;10528;52.124;5.196;2022-10-16T05:17:54;3.90;;;1.40;;
20734;SDS011;10528;52.124;5.196;2022-10-16T05:20:22;3.95;;;1.50;;
20734;SDS011;10528;52.124;5.196;2022-10-16T05:22:49;3.97;;;1.45;;
20734;SDS011;10528;52.124;5.196;2022-10-16T05:25:16;2.92;;;1.55;;
20734;SDS011;10528;52.124;5.196;2022-10-16T05:27:43;3.13;;;1.45;;
20734;SDS011;10528;52.124;5.196;2022-10-16T05:30:13;2.22;;;1.48;;
20734;SDS011;10528;52.124;5.196;2022-10-16T05:32:41;2.05;;;1.40;;
20734;SDS011;10528;52.124;5.196;2022-10-16T05:35:13;3.00;;;1.45;;
20734;SDS011;10528;52.124;5.196;2022-10-16T05:37:39;3.45;;;1.33;;
20734;SDS011;10528;52.124;5.196;2022-10-16T05:40:06;3.08;;;1.65;;
20734;SDS011;10528;52.124;5.196;2022-10-16T05:42:34;2.65;;;1.33;;
20734;SDS011;10528;52.124;5.196;2022-10-16T05:45:01;5.05;;;1.60;;
20734;SDS011;10528;52.124;5.196;2022-10-16T05:47:28;2.92;;;1.42;;
20734;SDS011;10528;52.124;5.196;2022-10-16T05:49:55;4.13;;;1.50;;
20734;SDS011;10528;52.124;5.196;2022-10-16T05:52:22;3.47;;;1.45;;
20734;SDS011;10528;52.124;5.196;2022-10-16T05:54:49;9.88;;;1.58;;
20734;SDS011;10528;52.124;5.196;2022-10-16T05:57:16;3.80;;;1.45;;
20734;SDS011;10528;52.124;5.196;2022-10-16T05:59:42;5.10;;;2.25;;
20734;SDS011;10528;52.124;5.196;2022-10-16T06:02:13;3.90;;;1.88;;
20734;SDS011;10528;52.124;5.196;2022-10-16T06:04:40;3.40;;;1.65;;
20734;SDS011;10528;52.124;5.196;2022-10-16T06:07:07;5.18;;;1.70;;
20734;SDS011;10528;52.124;5.196;2022-10-16T06:09:34;3.00;;;1.60;;
20734;SDS011;10528;52.124;5.196;2022-10-16T06:12:01;3.55;;;1.70;;
20734;SDS011;10528;52.124;5.196;2022-10-16T06:14:28;4.13;;;1.88;;
20734;SDS011;10528;52.124;5.196;2022-10-16T06:16:55;3.97;;;1.75;;
20734;SDS011;10528;52.124;5.196;2022-10-16T06:19:22;3.67;;;1.77;;
20734;SDS011;10528;52.124;5.196;2022-10-16T06:21:49;4.82;;;1.70;;
20734;SDS011;10528;52.124;5.196;2022-10-16T06:24:16;3.90;;;1.77;;
20734;SDS011;10528;52.124;5.196;2022-10-16T06:26:42;3.55;;;1.50;;
20734;SDS011;10528;52.124;5.196;2022-10-16T06:29:09;4.07;;;1.98;;
20734;SDS011;10528;52.124;5.196;2022-10-16T06:31:36;2.45;;;1.73;;
20734;SDS011;10528;52.124;5.196;2022-10-16T06:34:03;2.45;;;1.90;;
20734;SDS011;10528;52.124;5.196;2022-10-16T06:36:32;3.03;;;1.83;;
20734;SDS011;10528;52.124;5.196;2022-10-16T06:38:59;4.82;;;1.92;;
20734;SDS011;10528;52.124;5.196;2022-10-16T06:41:25;4.63;;;1.65;;
20734;SDS011;10528;52.124;5.196;2022-10-16T06:43:52;6.05;;;1.70;;
20734;SDS011;10528;52.124;5.196;2022-10-16T06:46:20;3.60;;;1.95;;
20734;SDS011;10528;52.124;5.196;2022-10-16T06:48:50;3.10;;;1.40;;
20734;SDS011;10528;52.124;5.196;2022-10-16T06:51:17;4.22;;;2.00;;
20734;SDS011;10528;52.124;5.196;2022-10-16T06:53:50;5.00;;;1.88;;
20734;SDS011;10528;52.124;5.196;2022-10-16T06:56:34;3.25;;;1.65;;
20734;SDS011;10528;52.124;5.196;2022-10-16T06:59:02;4.32;;;1.48;;
20734;SDS011;10528;52.124;5.196;2022-10-16T07:01:29;5.75;;;1.75;;
20734;SDS011;10528;52.124;5.196;2022-10-16T07:03:57;3.53;;;1.58;;
20734;SDS011;10528;52.124;5.196;2022-10-16T07:06:24;3.20;;;1.55;;
20734;SDS011;10528;52.124;5.196;2022-10-16T07:08:53;4.10;;;1.65;;
20734;SDS011;10528;52.124;5.196;2022-10-16T07:11:20;2.92;;;1.20;;
20734;SDS011;10528;52.124;5.196;2022-10-16T07:13:49;5.10;;;1.83;;
20734;SDS011;10528;52.124;5.196;2022-10-16T07:16:23;3.00;;;1.45;;
20734;SDS011;10528;52.124;5.196;2022-10-16T07:18:54;4.72;;;1.50;;
20734;SDS011;10528;52.124;5.196;2022-10-16T07:21:27;2.85;;;1.08;;
20734;SDS011;10528;52.124;5.196;2022-10-16T07:24:01;3.53;;;1.20;;
20734;SDS011;10528;52.124;5.196;2022-10-16T07:26:30;3.42;;;1.20;;
20734;SDS011;10528;52.124;5.196;2022-10-16T07:29:00;4.18;;;1.38;;
20734;SDS011;10528;52.124;5.196;2022-10-16T07:31:27;5.43;;;1.55;;
20734;SDS011;10528;52.124;5.196;2022-10-16T07:33:54;3.22;;;1.20;;
20734;SDS011;10528;52.124;5.196;2022-10-16T07:36:21;4.75;;;1.38;;
20734;SDS011;10528;52.124;5.196;2022-10-16T07:38:48;4.85;;;0.98;;
20734;SDS011;10528;52.124;5.196;2022-10-16T07:41:19;5.57;;;1.52;;
20734;SDS011;10528;52.124;5.196;2022-10-16T07:43:50;3.38;;;1.40;;
20734;SDS011;10528;52.124;5.196;2022-10-16T07:46:21;4.72;;;1.23;;
20734;SDS011;10528;52.124;5.196;2022-10-16T07:48:49;4.55;;;1.30;;
20734;SDS011;10528;52.124;5.196;2022-10-16T07:51:17;5.63;;;1.40;;
20734;SDS011;10528;52.124;5.196;2022-10-16T07:53:47;4.07;;;1.50;;
20734;SDS011;10528;52.124;5.196;2022-10-16T07:56:16;4.85;;;1.42;;
20734;SDS011;10528;52.124;5.196;2022-10-16T07:58:44;4.28;;;1.67;;
20734;SDS011;10528;52.124;5.196;2022-10-16T08:01:12;5.07;;;1.42;;
20734;SDS011;10528;52.124;5.196;2022-10-16T08:03:45;5.35;;;1.80;;
20734;SDS011;10528;52.124;5.196;2022-10-16T08:06:14;7.40;;;2.00;;
20734;SDS011;10528;52.124;5.196;2022-10-16T08:08:42;5.72;;;2.05;;
20734;SDS011;10528;52.124;5.196;2022-10-16T08:11:09;4.18;;;1.70;;
20734;SDS011;10528;52.124;5.196;2022-10-16T08:13:36;5.18;;;1.73;;
20734;SDS011;10528;52.124;5.196;2022-10-16T08:16:03;4.65;;;1.88;;
20734;SDS011;10528;52.124;5.196;2022-10-16T08:18:34;6.65;;;1.80;;
20734;SDS011;10528;52.124;5.196;2022-10-16T08:21:04;5.05;;;2.28;;
20734;SDS011;10528;52.124;5.196;2022-10-16T08:23:32;6.22;;;2.05;;
20734;SDS011;10528;52.124;5.196;2022-10-16T08:26:05;4.80;;;1.73;;
20734;SDS011;10528;52.124;5.196;2022-10-16T08:28:34;5.53;;;2.00;;
20734;SDS011;10528;52.124;5.196;2022-10-16T08:31:09;5.32;;;1.50;;
20734;SDS011;10528;52.124;5.196;2022-10-16T08:33:40;4.15;;;1.70;;
20734;SDS011;10528;52.124;5.196;2022-10-16T08:36:10;8.00;;;2.00;;
20734;SDS011;10528;52.124;5.196;2022-10-16T08:38:37;5.13;;;1.60;;
20734;SDS011;10528;52.124;5.196;2022-10-16T08:47:17;6.93;;;1.80;;
20734;SDS011;10528;52.124;5.196;2022-10-16T08:52:25;6.78;;;1.70;;
20734;SDS011;10528;52.124;5.196;2022-10-16T08:55:00;5.68;;;1.50;;
20734;SDS011;10528;52.124;5.196;2022-10-16T08:57:27;5.82;;;1.45;;
20734;SDS011;10528;52.124;5.196;2022-10-16T08:59:58;7.35;;;1.65;;
20734;SDS011;10528;52.124;5.196;2022-10-16T09:02:38;4.78;;;1.42;;
20734;SDS011;10528;52.124;5.196;2022-10-16T09:11:13;5.25;;;1.40;;
20734;SDS011;10528;52.124;5.196;2022-10-16T09:19:56;9.93;;;1.77;;
20734;SDS011;10528;52.124;5.196;2022-10-16T09:22:44;4.65;;;1.88;;
20734;SDS011;10528;52.124;5.196;2022-10-16T09:25:20;6.72;;;2.00;;
20734;SDS011;10528;52.124;5.196;2022-10-16T09:27:48;7.88;;;1.70;;
20734;SDS011;10528;52.124;5.196;2022-10-16T09:30:19;5.35;;;1.50;;
20734;SDS011;10528;52.124;5.196;2022-10-16T09:32:50;9.38;;;2.13;;
20734;SDS011;10528;52.124;5.196;2022-10-16T09:35:20;5.18;;;1.52;;
20734;SDS011;10528;52.124;5.196;2022-10-16T09:38:01;5.40;;;1.98;;
20734;SDS011;10528;52.124;5.196;2022-10-16T09:40:37;5.70;;;1.60;;
20734;SDS011;10528;52.124;5.196;2022-10-16T09:46:00;9.75;;;1.83;;
20734;SDS011;10528;52.124;5.196;2022-10-16T09:48:33;7.07;;;1.95;;
20734;SDS011;10528;52.124;5.196;2022-10-16T09:51:18;8.80;;;1.83;;
20734;SDS011;10528;52.124;5.196;2022-10-16T09:54:00;4.47;;;1.60;;
20734;SDS011;10528;52.124;5.196;2022-10-16T09:56:40;4.07;;;1.52;;
20734;SDS011;10528;52.124;5.196;2022-10-16T09:59:11;10.30;;;1.60;;
20734;SDS011;10528;52.124;5.196;2022-10-16T10:01:43;5.20;;;1.33;;
20734;SDS011;10528;52.124;5.196;2022-10-16T10:04:20;9.50;;;1.73;;
20734;SDS011;10528;52.124;5.196;2022-10-16T10:06:53;6.00;;;1.88;;
20734;SDS011;10528;52.124;5.196;2022-10-16T10:09:26;7.28;;;1.98;;
20734;SDS011;10528;52.124;5.196;2022-10-16T10:11:59;7.40;;;1.75;;
20734;SDS011;10528;52.124;5.196;2022-10-16T10:14:44;9.95;;;1.90;;
20734;SDS011;10528;52.124;5.196;2022-10-16T10:17:19;9.43;;;2.10;;
20734;SDS011;10528;52.124;5.196;2022-10-16T10:19:58;7.10;;;1.67;;
20734;SDS011;10528;52.124;5.196;2022-10-16T10:23:20;6.95;;;1.70;;
20734;SDS011;10528;52.124;5.196;2022-10-16T10:25:54;7.40;;;1.60;;
20734;SDS011;10528;52.124;5.196;2022-10-16T10:28:51;7.07;;;1.73;;
20734;SDS011;10528;52.124;5.196;2022-10-16T10:40:15;6.43;;;1.45;;
20734;SDS011;10528;52.124;5.196;2022-10-16T10:46:49;5.82;;;2.33;;
20734;SDS011;10528;52.124;5.196;2022-10-16T11:07:37;8.68;;;1.60;;
20734;SDS011;10528;52.124;5.196;2022-10-16T11:10:15;7.75;;;1.98;;
20734;SDS011;10528;52.124;5.196;2022-10-16T11:12:57;7.25;;;1.50;;
20734;SDS011;10528;52.124;5.196;2022-10-16T11:15:47;6.32;;;1.60;;
20734;SDS011;10528;52.124;5.196;2022-10-16T11:20:57;7.35;;;1.95;;
20734;SDS011;10528;52.124;5.196;2022-10-16T11:23:57;7.47;;;1.50;;
20734;SDS011;10528;52.124;5.196;2022-10-16T11:26:45;7.93;;;1.48;;
20734;SDS011;10528;52.124;5.196;2022-10-16T11:29:17;7.05;;;1.83;;
20734;SDS011;10528;52.124;5.196;2022-10-16T11:31:53;7.32;;;1.30;;
20734;SDS011;10528;52.124;5.196;2022-10-16T11:34:36;8.23;;;2.10;;
20734;SDS011;10528;52.124;5.196;2022-10-16T11:37:14;7.88;;;1.52;;
20734;SDS011;10528;52.124;5.196;2022-10-16T11:39:50;9.70;;;1.42;;
20734;SDS011;10528;52.124;5.196;2022-10-16T11:42:36;8.23;;;1.50;;
20734;SDS011;10528;52.124;5.196;2022-10-16T11:48:27;5.65;;;1.40;;
20734;SDS011;10528;52.124;5.196;2022-10-16T11:51:08;6.93;;;1.30;;
20734;SDS011;10528;52.124;5.196;2022-10-16T11:54:32;9.50;;;1.90;;
20734;SDS011;10528;52.124;5.196;2022-10-16T11:56:40;4.68;;;1.20;;
20734;SDS011;10528;52.124;5.196;2022-10-16T11:59:14;10.63;;;1.83;;
20734;SDS011;10528;52.124;5.196;2022-10-16T12:04:56;5.55;;;1.08;;
20734;SDS011;10528;52.124;5.196;2022-10-16T12:07:48;7.00;;;1.58;;
20734;SDS011;10528;52.124;5.196;2022-10-16T12:10:32;7.43;;;1.55;;
20734;SDS011;10528;52.124;5.196;2022-10-16T12:13:28;6.53;;;1.52;;
20734;SDS011;10528;52.124;5.196;2022-10-16T12:18:38;7.68;;;1.90;;
20734;SDS011;10528;52.124;5.196;2022-10-16T12:21:08;8.05;;;1.60;;
20734;SDS011;10528;52.124;5.196;2022-10-16T12:23:52;5.82;;;0.93;;
20734;SDS011;10528;52.124;5.196;2022-10-16T12:26:38;9.77;;;1.42;;
20734;SDS011;10528;52.124;5.196;2022-10-16T12:29:14;6.63;;;1.33;;
20734;SDS011;10528;52.124;5.196;2022-10-16T12:32:53;9.50;;;1.83;;
20734;SDS011;10528;52.124;5.196;2022-10-16T12:35:20;5.75;;;1.30;;
20734;SDS011;10528;52.124;5.196;2022-10-16T12:37:54;6.40;;;1.17;;
20734;SDS011;10528;52.124;5.196;2022-10-16T12:40:34;8.93;;;1.33;;
20734;SDS011;10528;52.124;5.196;2022-10-16T12:46:02;6.55;;;1.00;;
20734;SDS011;10528;52.124;5.196;2022-10-16T12:48:36;9.20;;;1.55;;
20734;SDS011;10528;52.124;5.196;2022-10-16T12:54:14;5.60;;;1.40;;
20734;SDS011;10528;52.124;5.196;2022-10-16T12:59:55;8.10;;;1.27;;
20734;SDS011;10528;52.124;5.196;2022-10-16T13:14:52;6.65;;;1.40;;
20734;SDS011;10528;52.124;5.196;2022-10-16T13:29:06;7.22;;;1.17;;
20734;SDS011;10528;52.124;5.196;2022-10-16T13:31:33;7.20;;;1.20;;
20734;SDS011;10528;52.124;5.196;2022-10-16T13:34:05;5.72;;;1.38;;
20734;SDS011;10528;52.124;5.196;2022-10-16T13:36:44;4.28;;;1.02;;
20734;SDS011;10528;52.124;5.196;2022-10-16T13:42:01;8.88;;;1.27;;
20734;SDS011;10528;52.124;5.196;2022-10-16T13:44:36;5.30;;;1.08;;
20734;SDS011;10528;52.124;5.196;2022-10-16T13:47:18;7.30;;;1.23;;
20734;SDS011;10528;52.124;5.196;2022-10-16T13:49:58;4.55;;;1.27;;
20734;SDS011;10528;52.124;5.196;2022-10-16T13:52:40;8.05;;;1.40;;
20734;SDS011;10528;52.124;5.196;2022-10-16T13:55:11;8.50;;;1.73;;
20734;SDS011;10528;52.124;5.196;2022-10-16T13:57:43;3.63;;;1.00;;
20734;SDS011;10528;52.124;5.196;2022-10-16T14:00:24;5.43;;;1.30;;
20734;SDS011;10528;52.124;5.196;2022-10-16T14:03:02;10.80;;;1.33;;
20734;SDS011;10528;52.124;5.196;2022-10-16T14:05:45;5.30;;;1.20;;
20734;SDS011;10528;52.124;5.196;2022-10-16T14:08:21;8.13;;;1.52;;
20734;SDS011;10528;52.124;5.196;2022-10-16T14:10:51;9.43;;;1.50;;
20734;SDS011;10528;52.124;5.196;2022-10-16T14:13:31;6.70;;;1.20;;
20734;SDS011;10528;52.124;5.196;2022-10-16T14:16:05;14.93;;;2.22;;
20734;SDS011;10528;52.124;5.196;2022-10-16T14:18:37;7.30;;;1.48;;
20734;SDS011;10528;52.124;5.196;2022-10-16T14:21:06;8.55;;;2.05;;
20734;SDS011;10528;52.124;5.196;2022-10-16T14:23:40;8.27;;;1.60;;
20734;SDS011;10528;52.124;5.196;2022-10-16T14:28:36;9.68;;;1.50;;
20734;SDS011;10528;52.124;5.196;2022-10-16T14:33:57;7.32;;;1.55;;
20734;SDS011;10528;52.124;5.196;2022-10-16T14:36:26;7.85;;;1.40;;
20734;SDS011;10528;52.124;5.196;2022-10-16T14:38:56;6.35;;;1.20;;
20734;SDS011;10528;52.124;5.196;2022-10-16T14:41:29;7.68;;;1.35;;
20734;SDS011;10528;52.124;5.196;2022-10-16T14:44:01;6.25;;;2.15;;
20734;SDS011;10528;52.124;5.196;2022-10-16T14:46:37;8.80;;;1.50;;
20734;SDS011;10528;52.124;5.196;2022-10-16T14:51:37;4.28;;;1.30;;
20734;SDS011;10528;52.124;5.196;2022-10-16T14:54:14;5.78;;;1.33;;
20734;SDS011;10528;52.124;5.196;2022-10-16T14:56:48;7.90;;;1.30;;
20734;SDS011;10528;52.124;5.196;2022-10-16T14:59:28;9.38;;;1.60;;
20734;SDS011;10528;52.124;5.196;2022-10-16T15:02:08;8.02;;;1.75;;
20734;SDS011;10528;52.124;5.196;2022-10-16T15:04:54;8.07;;;1.83;;
20734;SDS011;10528;52.124;5.196;2022-10-16T15:07:22;4.70;;;1.20;;
20734;SDS011;10528;52.124;5.196;2022-10-16T15:09:50;8.30;;;1.77;;
20734;SDS011;10528;52.124;5.196;2022-10-16T15:12:17;8.52;;;1.40;;
20734;SDS011;10528;52.124;5.196;2022-10-16T15:14:44;8.25;;;1.73;;
20734;SDS011;10528;52.124;5.196;2022-10-16T15:17:11;6.68;;;1.52;;
20734;SDS011;10528;52.124;5.196;2022-10-16T15:19:39;11.35;;;1.80;;
20734;SDS011;10528;52.124;5.196;2022-10-16T15:22:06;7.85;;;1.65;;
20734;SDS011;10528;52.124;5.196;2022-10-16T15:24:37;7.88;;;1.48;;
20734;SDS011;10528;52.124;5.196;2022-10-16T15:27:04;9.82;;;1.90;;
20734;SDS011;10528;52.124;5.196;2022-10-16T15:29:30;5.45;;;1.17;;
20734;SDS011;10528;52.124;5.196;2022-10-16T15:31:57;6.15;;;1.25;;
20734;SDS011;10528;52.124;5.196;2022-10-16T15:34:24;12.00;;;2.30;;
20734;SDS011;10528;52.124;5.196;2022-10-16T15:36:51;6.38;;;1.38;;
20734;SDS011;10528;52.124;5.196;2022-10-16T15:39:19;5.60;;;1.40;;
20734;SDS011;10528;52.124;5.196;2022-10-16T15:41:47;6.57;;;1.30;;
20734;SDS011;10528;52.124;5.196;2022-10-16T15:44:17;10.55;;;1.95;;
20734;SDS011;10528;52.124;5.196;2022-10-16T15:46:44;6.28;;;1.73;;
20734;SDS011;10528;52.124;5.196;2022-10-16T15:49:12;9.55;;;1.95;;
20734;SDS011;10528;52.124;5.196;2022-10-16T15:51:39;9.73;;;1.50;;
20734;SDS011;10528;52.124;5.196;2022-10-16T15:54:08;8.38;;;1.50;;
20734;SDS011;10528;52.124;5.196;2022-10-16T15:56:35;8.85;;;1.73;;
20734;SDS011;10528;52.124;5.196;2022-10-16T15:59:03;6.07;;;1.45;;
20734;SDS011;10528;52.124;5.196;2022-10-16T16:01:32;7.57;;;1.50;;
20734;SDS011;10528;52.124;5.196;2022-10-16T16:04:00;9.88;;;2.70;;
20734;SDS011;10528;52.124;5.196;2022-10-16T16:06:45;6.60;;;2.55;;
20734;SDS011;10528;52.124;5.196;2022-10-16T16:09:12;11.18;;;2.88;;
20734;SDS011;10528;52.124;5.196;2022-10-16T16:11:40;9.90;;;2.50;;
20734;SDS011;10528;52.124;5.196;2022-10-16T16:14:10;8.07;;;2.75;;
20734;SDS011;10528;52.124;5.196;2022-10-16T16:16:39;8.10;;;2.10;;
20734;SDS011;10528;52.124;5.196;2022-10-16T16:19:07;8.75;;;2.50;;
20734;SDS011;10528;52.124;5.196;2022-10-16T16:21:37;8.10;;;2.70;;
20734;SDS011;10528;52.124;5.196;2022-10-16T16:24:04;8.55;;;2.83;;
20734;SDS011;10528;52.124;5.196;2022-10-16T16:26:34;16.45;;;3.47;;
20734;SDS011;10528;52.124;5.196;2022-10-16T16:29:05;12.60;;;3.58;;
20734;SDS011;10528;52.124;5.196;2022-10-16T16:31:34;9.65;;;2.88;;
20734;SDS011;10528;52.124;5.196;2022-10-16T16:34:01;7.88;;;2.88;;
20734;SDS011;10528;52.124;5.196;2022-10-16T16:36:29;12.65;;;3.88;;
20734;SDS011;10528;52.124;5.196;2022-10-16T16:38:56;8.50;;;3.22;;
20734;SDS011;10528;52.124;5.196;2022-10-16T16:41:25;9.75;;;3.42;;
20734;SDS011;10528;52.124;5.196;2022-10-16T16:43:54;14.02;;;4.88;;
20734;SDS011;10528;52.124;5.196;2022-10-16T16:46:27;11.55;;;5.25;;
20734;SDS011;10528;52.124;5.196;2022-10-16T16:48:53;11.52;;;4.25;;
20734;SDS011;10528;52.124;5.196;2022-10-16T16:51:21;8.48;;;3.72;;
20734;SDS011;10528;52.124;5.196;2022-10-16T16:53:49;10.80;;;3.40;;
20734;SDS011;10528;52.124;5.196;2022-10-16T16:56:18;9.82;;;3.20;;
20734;SDS011;10528;52.124;5.196;2022-10-16T16:58:47;9.20;;;3.53;;
20734;SDS011;10528;52.124;5.196;2022-10-16T17:01:16;12.13;;;3.95;;
20734;SDS011;10528;52.124;5.196;2022-10-16T17:03:46;10.48;;;3.42;;
20734;SDS011;10528;52.124;5.196;2022-10-16T17:06:17;7.93;;;2.72;;
20734;SDS011;10528;52.124;5.196;2022-10-16T17:08:47;10.38;;;3.05;;
20734;SDS011;10528;52.124;5.196;2022-10-16T17:11:16;11.60;;;3.10;;
20734;SDS011;10528;52.124;5.196;2022-10-16T17:13:47;11.77;;;3.53;;
20734;SDS011;10528;52.124;5.196;2022-10-16T17:16:25;10.02;;;3.30;;
20734;SDS011;10528;52.124;5.196;2022-10-16T17:19:06;10.73;;;3.38;;
20734;SDS011;10528;52.124;5.196;2022-10-16T17:21:36;11.57;;;3.17;;
20734;SDS011;10528;52.124;5.196;2022-10-16T17:24:04;11.98;;;4.10;;